Terminal Aerodrome Forecast
Issued by NWS

Home | Current Version | Previous Version | Text Only | Print | Product List | Glossary On
Versions: 1 2 3 4 5 6 7 8 9 10 11 12 13 14 15 16
943
FTUS46 KSEW 271008 AAA
TAFHQM
TAF AMD
KHQM 271008Z 2710/2806 07005KT 3SM BR SCT002 BKN040
      TEMPO 2710/2714 1SM BR BKN002 BKN040
     FM271400 07005KT 5SM BR SCT002 BKN040 BKN060
      TEMPO 2714/2718 2SM BR BKN002 BKN040
     FM271800 24007KT P6SM VCSH SCT015 BKN035 BKN050
     FM272200 24012KT P6SM -SHRA BKN035 BKN050
     FM280400 27006KT P6SM BKN035 BKN050=

USA.gov is the U.S. government's official web portal to all federal, state and local government web resources and services.